Time;durP1;ratioP1;P1;durP2;ratioP2;P2;SDS_P1;SDS_P2;PMS_P1;PMS_P2;Temp;Humidity;BMP_temperature;BMP_pressure;BME280_temperature;BME280_humidity;BME280_pressure;Samples;Min_cycle;Max_cycle;Signal;HPM_P1;HPM_P2
2022/04/30 00:01:51;;;;;;;7.60;3.00;;;17.40;81.60;;;;;;4963079;28;96098;-70
2022/04/30 00:04:21;;;;;;;8.15;2.30;;;17.40;81.60;;;;;;4977737;28;95891;-70
2022/04/30 00:06:51;;;;;;;6.35;2.83;;;17.40;81.50;;;;;;4981780;28;95494;-70
2022/04/30 00:09:21;;;;;;;3.97;1.95;;;17.40;81.50;;;;;;4989337;28;95704;-70
2022/04/30 00:11:51;;;;;;;9.00;2.13;;;17.40;81.60;;;;;;4988841;28;96219;-70
2022/04/30 00:14:25;;;;;;;6.43;2.17;;;17.40;79.30;;;;;;4986149;28;96039;-70
2022/04/30 00:16:58;;;;;;;7.32;2.30;;;17.40;79.60;;;;;;4976844;28;95612;-69
2022/04/30 00:19:29;;;;;;;8.52;3.10;;;17.40;81.70;;;;;;4987906;28;95872;-69
2022/04/30 00:22:00;;;;;;;5.20;2.00;;;17.40;81.70;;;;;;4987452;28;97654;-69
2022/04/30 00:24:38;;;;;;;4.13;1.65;;;17.40;81.70;;;;;;4988605;28;96521;-69
2022/04/30 00:27:10;;;;;;;7.47;2.30;;;17.40;81.70;;;;;;4988294;28;95820;-69
2022/04/30 00:29:42;;;;;;;6.47;1.75;;;17.40;81.70;;;;;;4972748;28;95868;-69
2022/04/30 00:32:13;;;;;;;6.38;2.25;;;17.40;81.50;;;;;;4967765;28;98605;-69
2022/04/30 00:34:45;;;;;;;3.80;2.33;;;17.40;81.50;;;;;;4995287;28;95829;-69
2022/04/30 00:37:17;;;;;;;;;;;17.40;81.50;;;;;;4996835;28;95206;-69
2022/04/30 00:39:49;;;;;;;3.47;2.03;;;17.40;81.40;;;;;;4991410;28;95765;-69
2022/04/30 00:42:19;;;;;;;5.20;1.88;;;17.50;81.40;;;;;;4978696;28;95465;-69
2022/04/30 00:44:51;;;;;;;4.97;1.90;;;17.40;81.40;;;;;;4977291;28;97151;-69
2022/04/30 00:47:21;;;;;;;4.22;1.73;;;17.40;81.40;;;;;;4982188;28;96966;-69
2022/04/30 00:49:53;;;;;;;3.75;1.95;;;17.40;81.40;;;;;;4985499;28;95545;-70
2022/04/30 00:52:26;;;;;;;5.22;1.80;;;17.50;79.20;;;;;;4984481;28;95745;-70
2022/04/30 00:55:02;;;;;;;7.03;2.10;;;17.50;81.50;;;;;;4987822;28;95903;-70
2022/04/30 00:57:33;;;;;;;7.38;2.08;;;17.50;81.50;;;;;;4987196;28;95347;-69
2022/04/30 01:00:09;;;;;;;3.50;1.52;;;17.50;81.60;;;;;;4977449;28;95785;-70
2022/04/30 01:02:55;;;;;;;3.97;1.80;;;17.50;82.20;;;;;;4979228;28;96015;-69
2022/04/30 01:05:45;;;;;;;6.07;2.10;;;17.50;81.50;;;;;;4968349;28;98064;-70
2022/04/30 01:08:16;;;;;;;3.42;2.00;;;17.50;81.50;;;;;;4962224;28;97087;-69
2022/04/30 01:10:46;;;;;;;3.77;2.03;;;17.50;81.40;;;;;;4983668;28;95345;-69
2022/04/30 01:13:18;;;;;;;3.72;1.80;;;17.50;81.40;;;;;;4967159;28;95655;-69
2022/04/30 01:15:50;;;;;;;3.90;1.60;;;17.60;81.30;;;;;;4980302;28;97324;-69
2022/04/30 01:18:22;;;;;;;3.92;1.55;;;17.60;81.20;;;;;;4985472;28;96101;-69
2022/04/30 01:20:59;;;;;;;1.85;1.60;;;17.60;81.20;;;;;;4967752;28;95668;-69
2022/04/30 01:23:30;;;;;;;3.22;1.50;;;17.60;81.30;;;;;;4987190;28;96211;-69
2022/04/30 01:26:03;;;;;;;4.15;1.40;;;17.60;81.20;;;;;;4985799;28;96397;-69
2022/04/30 01:28:39;;;;;;;9.48;2.03;;;17.60;81.30;;;;;;4984912;28;95495;-69
2022/04/30 01:40:02;;;;;;;6.00;1.98;;;17.70;80.40;;;;;;4991998;28;95357;-70
2022/04/30 01:42:36;;;;;;;2.85;1.48;;;17.60;80.70;;;;;;4989887;28;95891;-69
2022/04/30 01:45:08;;;;;;;5.97;2.00;;;17.70;80.60;;;;;;4984356;28;95815;-70
2022/04/30 01:47:43;;;;;;;2.83;1.33;;;17.70;80.70;;;;;;4990366;28;96566;-71
2022/04/30 01:50:15;;;;;;;2.65;1.10;;;17.70;80.90;;;;;;4972831;28;96452;-70
2022/04/30 01:52:47;;;;;;;2.35;1.30;;;17.70;81.00;;;;;;4989283;28;96299;-69
2022/04/30 01:55:18;;;;;;;3.22;1.60;;;17.70;80.90;;;;;;4972533;28;95812;-70
2022/04/30 01:57:56;;;;;;;3.03;1.55;;;17.80;81.00;;;;;;4978832;28;96341;-69
2022/04/30 02:00:27;;;;;;;2.83;1.50;;;17.80;80.90;;;;;;4967084;28;95662;-69
2022/04/30 02:03:08;;;;;;;;;;;17.80;80.90;;;;;;4990713;28;98682;-69
2022/04/30 02:05:41;;;;;;;2.42;1.30;;;17.90;80.80;;;;;;4981094;28;95558;-68
2022/04/30 02:08:18;;;;;;;3.05;1.40;;;17.90;80.70;;;;;;4972784;28;97770;-69
2022/04/30 02:10:48;;;;;;;6.05;1.73;;;17.90;81.40;;;;;;4970442;28;95906;-70
2022/04/30 02:13:23;;;;;;;4.05;1.85;;;18.00;80.70;;;;;;4984058;28;96077;-69
2022/04/30 02:15:58;;;;;;;4.22;1.50;;;18.00;81.40;;;;;;4962841;28;96425;-69
2022/04/30 02:18:31;;;;;;;5.05;1.27;;;18.00;80.70;;;;;;4988750;28;96855;-70
2022/04/30 02:21:02;;;;;;;2.35;1.52;;;18.00;80.70;;;;;;4979691;28;95808;-69
2022/04/30 02:23:33;;;;;;;5.70;1.80;;;18.10;80.70;;;;;;4985154;28;95804;-70
2022/04/30 02:26:05;;;;;;;1.45;1.10;;;18.10;80.70;;;;;;4972362;28;95355;-69
2022/04/30 02:28:37;;;;;;;2.72;1.45;;;18.20;80.60;;;;;;4978305;28;95904;-70
2022/04/30 02:31:09;;;;;;;1.75;0.90;;;18.20;80.50;;;;;;4965563;28;95338;-69
2022/04/30 02:33:40;;;;;;;3.50;1.00;;;18.20;80.40;;;;;;4989469;28;95698;-70
2022/04/30 02:36:13;;;;;;;2.03;1.17;;;18.20;80.40;;;;;;4978728;28;97233;-69
2022/04/30 02:38:44;;;;;;;4.00;1.52;;;18.20;80.30;;;;;;4972748;28;96894;-69
2022/04/30 02:41:20;;;;;;;4.93;1.55;;;18.20;80.40;;;;;;4971020;28;95237;-69
2022/04/30 02:43:54;;;;;;;4.18;1.92;;;18.20;80.40;;;;;;4970410;28;96002;-68
2022/04/30 02:46:24;;;;;;;6.07;1.25;;;18.20;80.40;;;;;;4979835;28;98492;-70
2022/04/30 02:48:55;;;;;;;7.65;1.77;;;18.30;80.50;;;;;;4990244;28;97733;-71
2022/04/30 02:51:26;;;;;;;3.85;1.10;;;18.30;80.60;;;;;;4985614;28;96386;-70
2022/04/30 02:53:57;;;;;;;3.45;1.65;;;18.20;80.60;;;;;;4984819;28;95673;-70
2022/04/30 02:56:28;;;;;;;4.43;1.63;;;18.20;80.70;;;;;;4989241;28;95242;-70
2022/04/30 03:01:48;;;;;;;1.65;1.25;;;18.20;80.70;;;;;;4975896;28;96795;-70
2022/04/30 03:04:41;;;;;;;3.67;1.20;;;18.20;80.60;;;;;;4986241;28;95409;-69
2022/04/30 03:07:11;;;;;;;4.00;1.40;;;18.20;80.60;;;;;;4984533;28;95832;-69
2022/04/30 03:09:42;;;;;;;3.53;1.10;;;18.20;80.70;;;;;;4981329;28;95825;-69
2022/04/30 03:12:14;;;;;;;2.35;1.25;;;18.20;80.70;;;;;;4986356;28;95817;-69
2022/04/30 03:14:45;;;;;;;4.13;1.23;;;18.20;80.60;;;;;;4978513;28;96189;-67
2022/04/30 03:22:56;;;;;;;2.63;1.20;;;18.80;80.30;;;;;;4987292;28;95354;-67
2022/04/30 03:25:28;;;;;;;1.48;1.08;;;19.00;80.20;;;;;;4984036;28;97137;-69
2022/04/30 03:28:00;;;;;;;1.77;1.30;;;19.20;80.00;;;;;;4984868;28;95936;-69
2022/04/30 03:30:32;;;;;;;2.47;1.40;;;19.40;79.60;;;;;;4981299;28;98674;-69
2022/04/30 03:33:04;;;;;;;2.38;1.27;;;19.50;79.50;;;;;;4987451;28;96398;-70
2022/04/30 03:35:42;;;;;;;2.13;1.40;;;19.70;79.00;;;;;;4987386;28;95738;-69
2022/04/30 03:38:13;;;;;;;2.75;1.40;;;19.90;78.60;;;;;;4969955;28;96004;-67
2022/04/30 03:40:44;;;;;;;2.22;0.95;;;20.00;78.00;;;;;;4987788;28;96460;-68
2022/04/30 03:43:18;;;;;;;1.50;1.13;;;20.20;77.60;;;;;;4984919;28;95919;-69
2022/04/30 03:45:49;;;;;;;1.40;1.00;;;20.40;77.20;;;;;;4979885;28;96276;-69
2022/04/30 03:48:20;;;;;;;0.80;0.80;;;20.50;76.80;;;;;;4988728;28;95880;-70
2022/04/30 03:50:52;;;;;;;0.85;0.85;;;20.60;76.70;;;;;;4988319;28;96404;-70
2022/04/30 03:53:24;;;;;;;1.23;0.85;;;20.70;76.30;;;;;;4987994;28;96169;-70
2022/04/30 03:55:56;;;;;;;1.10;1.00;;;20.80;76.10;;;;;;4973212;28;95942;-70
2022/04/30 03:58:29;;;;;;;1.58;0.90;;;20.90;76.00;;;;;;4987153;28;96809;-71
2022/04/30 04:01:00;;;;;;;1.40;0.95;;;21.00;75.50;;;;;;4967909;28;96517;-69
2022/04/30 04:03:30;;;;;;;0.77;0.77;;;21.10;75.40;;;;;;4994081;28;95794;-70
2022/04/30 04:06:00;;;;;;;0.60;0.60;;;21.30;75.00;;;;;;4995563;28;95963;-69
2022/04/30 04:08:30;;;;;;;3.13;1.27;;;21.40;74.60;;;;;;4993697;28;95320;-69
2022/04/30 04:11:02;;;;;;;2.08;1.10;;;21.50;74.00;;;;;;4994172;28;95821;-71
2022/04/30 04:19:14;;;;;;;1.10;1.00;;;21.70;73.60;;;;;;4986778;28;95867;-70
2022/04/30 04:21:46;;;;;;;1.10;1.00;;;21.80;73.60;;;;;;4961747;28;96083;-69
2022/04/30 04:27:09;;;;;;;1.58;0.90;;;21.90;73.40;;;;;;4986649;28;98085;-70
2022/04/30 04:29:48;;;;;;;0.70;0.70;;;21.90;73.20;;;;;;4971719;28;96386;-68
2022/04/30 04:32:20;;;;;;;1.42;1.00;;;22.10;72.80;;;;;;4973129;28;98718;-69
2022/04/30 04:34:51;;;;;;;1.60;1.55;;;22.10;72.60;;;;;;5003883;28;96840;-69
2022/04/30 04:37:23;;;;;;;0.95;0.80;;;22.20;72.70;;;;;;5005823;28;95962;-69
2022/04/30 04:39:55;;;;;;;2.88;2.78;;;22.20;72.50;;;;;;5004844;28;96239;-68
2022/04/30 04:42:26;;;;;;;2.58;1.52;;;22.30;72.50;;;;;;4986815;28;96584;-70
2022/04/30 04:44:57;;;;;;;1.35;1.25;;;22.10;68.20;;;;;;5004418;28;95804;-71
2022/04/30 04:47:28;;;;;;;2.30;1.33;;;21.80;68.10;;;;;;4980788;28;95885;-71
2022/04/30 04:49:59;;;;;;;1.85;1.15;;;21.50;68.90;;;;;;5000007;28;95356;-70
2022/04/30 04:52:32;;;;;;;1.40;1.23;;;21.40;69.50;;;;;;5003695;28;96567;-69
2022/04/30 04:55:04;;;;;;;1.70;1.20;;;21.30;68.10;;;;;;5005211;28;95762;-69
2022/04/30 04:57:38;;;;;;;1.10;0.98;;;21.40;70.70;;;;;;5004891;28;96367;-71
2022/04/30 05:00:10;;;;;;;2.47;1.10;;;21.60;70.90;;;;;;5003850;28;96400;-70
2022/04/30 05:02:40;;;;;;;3.30;1.40;;;21.70;70.90;;;;;;4979444;28;97286;-68
2022/04/30 05:05:10;;;;;;;1.40;1.30;;;21.80;70.80;;;;;;5001521;28;95919;-70
2022/04/30 05:07:40;;;;;;;1.08;1.00;;;21.90;70.80;;;;;;5002705;28;95971;-70
2022/04/30 05:10:10;;;;;;;1.35;1.25;;;22.00;70.80;;;;;;5010070;28;95517;-68
2022/04/30 05:12:43;;;;;;;1.75;1.00;;;22.10;71.50;;;;;;5007607;28;96329;-69
2022/04/30 05:15:15;;;;;;;1.40;1.30;;;22.10;70.70;;;;;;5000657;28;97731;-69
2022/04/30 05:17:46;;;;;;;1.17;0.85;;;22.30;70.60;;;;;;5009385;28;95649;-69
2022/04/30 05:20:17;;;;;;;1.38;0.75;;;22.30;70.60;;;;;;4991237;28;95993;-69
2022/04/30 05:23:08;;;;;;;0.88;0.85;;;22.30;70.60;;;;;;5006367;28;95805;-70
2022/04/30 05:25:40;;;;;;;1.30;1.10;;;22.30;70.60;;;;;;5008570;28;96365;-69
2022/04/30 05:28:12;;;;;;;1.98;1.02;;;22.10;69.20;;;;;;5008619;28;95221;-69
2022/04/30 05:30:43;;;;;;;1.98;1.20;;;22.10;70.10;;;;;;5000413;28;96881;-68
2022/04/30 05:33:14;;;;;;;;;;;22.10;70.20;;;;;;4992002;28;98332;-68
2022/04/30 05:35:45;;;;;;;2.20;1.30;;;22.10;70.30;;;;;;5000487;28;96005;-68
2022/04/30 05:38:17;;;;;;;2.00;1.90;;;22.10;70.30;;;;;;5005067;28;96207;-69
2022/04/30 05:40:48;;;;;;;;;;;22.20;70.40;;;;;;5006465;28;95940;-68
2022/04/30 05:43:19;;;;;;;2.58;2.30;;;22.20;70.40;;;;;;5010119;28;96544;-70
2022/04/30 05:45:51;;;;;;;2.83;2.50;;;22.20;70.50;;;;;;4983678;28;97457;-68
2022/04/30 05:48:22;;;;;;;2.08;1.98;;;22.20;70.50;;;;;;5006888;28;96904;-68
2022/04/30 06:41:33;;;;;;;3.70;1.58;;;19.40;74.20;;;;;;5001488;27;96508;-61
2022/04/30 06:44:04;;;;;;;5.10;1.95;;;19.40;72.00;;;;;;5005302;28;95916;-55
2022/04/30 06:46:37;;;;;;;3.20;1.65;;;19.40;74.20;;;;;;4981118;27;98669;-57
2022/04/30 06:49:10;;;;;;;2.50;1.25;;;19.40;74.10;;;;;;4955359;28;95897;-59
2022/04/30 06:51:42;;;;;;;3.65;1.48;;;19.40;72.70;;;;;;4967789;28;95446;-57
2022/04/30 06:57:08;;;;;;;4.47;1.92;;;19.30;74.30;;;;;;4966677;28;96077;-56
2022/04/30 06:59:41;;;;;;;3.67;1.95;;;19.30;74.40;;;;;;4967387;28;95837;-61
2022/04/30 07:02:21;;;;;;;3.17;2.17;;;19.20;74.50;;;;;;4961873;28;96050;-62
2022/04/30 07:04:52;;;;;;;3.65;1.60;;;19.20;74.70;;;;;;4970731;28;95892;-68
2022/04/30 07:07:23;;;;;;;5.43;2.20;;;19.10;74.80;;;;;;4963635;28;95938;-66
2022/04/30 07:09:53;;;;;;;;;;;19.10;74.60;;;;;;4966949;28;96503;-70
2022/04/30 07:12:24;;;;;;;3.67;1.80;;;19.10;74.80;;;;;;4967281;28;95735;-70
2022/04/30 07:14:55;;;;;;;4.35;2.10;;;19.10;74.90;;;;;;4966996;28;97346;-71
2022/04/30 07:17:25;;;;;;;3.85;1.65;;;19.10;74.90;;;;;;4942295;28;96596;-70
2022/04/30 07:19:55;;;;;;;4.93;1.92;;;19.00;74.90;;;;;;4968021;28;96680;-69
2022/04/30 07:22:25;;;;;;;5.18;1.67;;;19.00;75.10;;;;;;4938103;28;95737;-69
2022/04/30 07:24:55;;;;;;;4.82;1.85;;;18.90;75.00;;;;;;4951962;28;95939;-70
2022/04/30 07:27:25;;;;;;;4.68;2.15;;;18.90;75.20;;;;;;4941846;28;95788;-70
2022/04/30 07:29:55;;;;;;;2.83;1.83;;;18.90;75.30;;;;;;4946340;28;96514;-69
2022/04/30 07:32:26;;;;;;;3.53;2.47;;;18.80;75.30;;;;;;4957987;28;96105;-69
2022/04/30 07:34:56;;;;;;;5.38;2.17;;;18.80;75.30;;;;;;4968505;28;96465;-69
2022/04/30 07:37:26;;;;;;;4.50;2.00;;;18.80;75.40;;;;;;4968756;28;95640;-69
2022/04/30 07:39:58;;;;;;;4.05;2.10;;;18.80;75.30;;;;;;4966678;28;96586;-69
2022/04/30 07:42:30;;;;;;;4.78;2.67;;;18.70;75.40;;;;;;4966003;28;97774;-69
2022/04/30 07:45:01;;;;;;;4.22;1.90;;;18.70;75.40;;;;;;4968580;28;95817;-69
2022/04/30 07:47:32;;;;;;;6.30;2.65;;;18.70;75.50;;;;;;4961292;28;95703;-67
2022/04/30 07:50:04;;;;;;;4.35;2.60;;;18.70;75.50;;;;;;4956402;28;96560;-66
2022/04/30 07:52:35;;;;;;;5.15;2.42;;;18.60;75.50;;;;;;4957356;28;95733;-66
2022/04/30 07:55:05;;;;;;;5.20;2.33;;;18.60;73.00;;;;;;4953820;28;95870;-63
2022/04/30 07:57:36;;;;;;;4.95;2.13;;;18.60;75.50;;;;;;4955918;28;95750;-64
2022/04/30 08:00:08;;;;;;;5.82;2.47;;;18.70;73.10;;;;;;4954095;28;95975;-64
2022/04/30 08:02:38;;;;;;;;;;;18.60;75.50;;;;;;4934788;28;95601;-61
2022/04/30 08:05:10;;;;;;;5.13;2.27;;;18.50;75.60;;;;;;4934573;28;95774;-61
2022/04/30 08:07:40;;;;;;;5.03;2.63;;;18.50;75.60;;;;;;4921377;28;95233;-57
2022/04/30 08:10:11;;;;;;;4.63;2.10;;;18.50;75.60;;;;;;4926730;28;96366;-58
2022/04/30 08:12:42;;;;;;;4.40;2.37;;;18.50;75.80;;;;;;4930678;28;96215;-59
2022/04/30 08:15:13;;;;;;;5.57;2.63;;;18.40;75.70;;;;;;4924813;28;95281;-57
2022/04/30 08:17:48;;;;;;;3.70;2.60;;;18.40;75.70;;;;;;4934898;28;95717;-57
2022/04/30 08:20:20;;;;;;;6.60;3.05;;;18.40;75.90;;;;;;4932403;28;95998;-58
2022/04/30 08:22:50;;;;;;;8.73;2.92;;;18.40;75.80;;;;;;4930848;28;95814;-58
2022/04/30 08:25:21;;;;;;;6.68;3.28;;;18.40;75.80;;;;;;4934047;28;96711;-58
2022/04/30 08:27:53;;;;;;;6.47;3.65;;;18.30;75.90;;;;;;4934066;28;96126;-58
2022/04/30 08:30:25;;;;;;;6.75;3.10;;;18.40;75.90;;;;;;4929029;28;98208;-57
2022/04/30 08:32:56;;;;;;;6.53;3.22;;;18.30;75.90;;;;;;4934122;28;96529;-58
2022/04/30 08:35:26;;;;;;;6.38;3.58;;;18.30;75.90;;;;;;4935308;28;95684;-57
2022/04/30 08:38:10;;;;;;;5.50;3.00;;;18.30;76.00;;;;;;4933120;28;95712;-58
2022/04/30 08:40:43;;;;;;;6.97;3.28;;;18.30;76.00;;;;;;4932217;28;96029;-57
2022/04/30 08:43:16;;;;;;;6.38;3.40;;;18.30;76.10;;;;;;4932212;28;96026;-58
2022/04/30 08:45:48;;;;;;;5.28;3.15;;;18.20;76.00;;;;;;4925838;28;95797;-58
2022/04/30 08:48:20;;;;;;;7.25;3.85;;;18.20;76.10;;;;;;4935834;28;95653;-59
2022/04/30 08:50:50;;;;;;;8.60;3.10;;;18.20;76.20;;;;;;4926577;28;97613;-58
2022/04/30 08:53:21;;;;;;;7.80;4.15;;;18.20;76.20;;;;;;4931220;28;95616;-59
2022/04/30 08:55:51;;;;;;;5.93;3.00;;;18.20;76.20;;;;;;4930286;28;95941;-56
2022/04/30 08:58:22;;;;;;;9.45;4.43;;;18.20;76.20;;;;;;4933387;28;95997;-58
2022/04/30 09:00:55;;;;;;;5.40;3.10;;;18.10;76.20;;;;;;4931652;28;95825;-58
2022/04/30 09:03:25;;;;;;;6.38;3.45;;;18.10;76.20;;;;;;4929469;28;95901;-57
2022/04/30 09:06:00;;;;;;;8.38;3.42;;;18.10;76.20;;;;;;4932203;28;95912;-58
2022/04/30 09:08:30;;;;;;;6.20;2.92;;;18.10;76.30;;;;;;4931950;28;95573;-60
2022/04/30 09:11:09;;;;;;;8.00;3.65;;;18.10;76.40;;;;;;4930272;28;98224;-58
2022/04/30 09:13:48;;;;;;;8.63;3.83;;;18.10;76.40;;;;;;4930813;28;95365;-58
2022/04/30 09:16:24;;;;;;;4.90;3.10;;;18.00;76.30;;;;;;4937452;28;98059;-56
2022/04/30 09:19:03;;;;;;;5.72;3.55;;;18.00;76.50;;;;;;4931439;28;95817;-58
2022/04/30 09:21:48;;;;;;;6.45;3.72;;;18.00;76.60;;;;;;4915612;28;96401;-57
2022/04/30 09:24:19;;;;;;;5.68;2.92;;;18.10;76.50;;;;;;4932150;28;95859;-60
2022/04/30 09:26:52;;;;;;;8.20;3.97;;;18.10;76.40;;;;;;4944822;28;95848;-56
2022/04/30 09:29:24;;;;;;;5.03;2.75;;;18.10;76.40;;;;;;4929535;28;96051;-55
2022/04/30 09:31:56;;;;;;;7.85;3.28;;;18.10;73.80;;;;;;4926759;28;95957;-58
2022/04/30 09:37:41;;;;;;;;;;;18.10;76.30;;;;;;4944576;28;95922;-55
2022/04/30 09:40:22;;;;;;;5.25;2.67;;;18.10;76.10;;;;;;4929792;28;95441;-57
2022/04/30 09:42:53;;;;;;;4.55;2.80;;;18.10;76.30;;;;;;4928033;28;95888;-58
2022/04/30 09:45:29;;;;;;;5.32;2.80;;;18.10;76.20;;;;;;4923533;28;95620;-58
2022/04/30 09:53:56;;;;;;;5.35;2.67;;;18.10;76.30;;;;;;4926333;28;96097;-56
2022/04/30 09:53:57;;;;;;;6.05;3.10;;;18.10;76.20;;;;;;4930125;28;96313;-58
2022/04/30 09:56:39;;;;;;;3.55;2.38;;;18.10;76.00;;;;;;4929122;28;96073;-60
2022/04/30 09:59:16;;;;;;;4.90;2.65;;;18.10;76.10;;;;;;4929867;28;95849;-55
2022/04/30 10:01:49;;;;;;;4.13;2.63;;;18.10;76.20;;;;;;4923400;28;97925;-57
2022/04/30 10:04:19;;;;;;;3.97;2.05;;;18.10;76.20;;;;;;4930791;28;95983;-57
2022/04/30 10:06:53;;;;;;;4.10;2.63;;;18.10;76.20;;;;;;4929127;28;96229;-55
2022/04/30 10:09:50;;;;;;;4.43;3.20;;;18.00;76.10;;;;;;4929322;28;96269;-58
2022/04/30 10:12:33;;;;;;;5.20;2.80;;;18.00;76.20;;;;;;4931867;28;95921;-55
2022/04/30 10:15:30;;;;;;;4.97;2.58;;;18.00;76.20;;;;;;4929037;28;97606;-56
2022/04/30 10:18:01;;;;;;;4.20;2.33;;;18.00;76.10;;;;;;4946882;28;101986;-58
2022/04/30 10:20:35;;;;;;;3.80;2.30;;;18.00;76.20;;;;;;4948032;28;95485;-56
2022/04/30 10:23:07;;;;;;;3.78;2.47;;;18.00;76.20;;;;;;4947885;28;95963;-58
2022/04/30 10:25:37;;;;;;;;;;;18.00;76.10;;;;;;4949201;28;96916;-58
2022/04/30 10:28:21;;;;;;;4.82;2.53;;;18.00;76.20;;;;;;4952140;28;95550;-55
2022/04/30 10:31:10;;;;;;;5.25;2.15;;;18.00;76.20;;;;;;4939190;28;95990;-57
2022/04/30 10:33:51;;;;;;;3.47;2.17;;;18.00;76.10;;;;;;4930487;28;95542;-56
2022/04/30 10:36:22;;;;;;;4.28;2.42;;;18.00;76.10;;;;;;4928722;28;95839;-57
2022/04/30 10:38:59;;;;;;;3.42;2.50;;;18.00;76.20;;;;;;4926830;28;96458;-57
2022/04/30 10:41:30;;;;;;;3.75;2.20;;;17.90;76.00;;;;;;4940004;28;95817;-57
2022/04/30 10:44:03;;;;;;;4.72;2.83;;;17.90;73.40;;;;;;4930710;28;95531;-58
2022/04/30 10:46:39;;;;;;;3.13;2.58;;;17.90;76.10;;;;;;4922205;28;95907;-58
2022/04/30 10:49:12;;;;;;;3.03;1.98;;;17.90;76.20;;;;;;4920843;28;95963;-57
2022/04/30 10:51:45;;;;;;;3.13;2.47;;;17.90;76.10;;;;;;4930179;28;95800;-59
2022/04/30 10:54:21;;;;;;;5.22;2.83;;;17.90;76.10;;;;;;4930133;28;95565;-58
2022/04/30 10:57:05;;;;;;;4.63;2.70;;;17.90;76.20;;;;;;4927589;28;95999;-55
2022/04/30 10:59:36;;;;;;;7.07;2.80;;;17.80;76.10;;;;;;4942152;28;96159;-53
2022/04/30 11:02:12;;;;;;;5.22;2.60;;;17.80;76.00;;;;;;4917570;28;95739;-58
2022/04/30 11:04:44;;;;;;;4.65;2.72;;;17.80;76.10;;;;;;4927355;28;96020;-57
2022/04/30 11:07:16;;;;;;;5.80;2.77;;;17.70;76.20;;;;;;4926741;28;96430;-54
2022/04/30 11:09:48;;;;;;;3.00;2.20;;;17.70;76.10;;;;;;4926981;28;95822;-59
2022/04/30 11:12:21;;;;;;;6.65;3.25;;;17.70;76.20;;;;;;4927015;28;95862;-59
2022/04/30 11:14:56;;;;;;;4.65;2.60;;;17.60;76.10;;;;;;4925845;28;96189;-60
2022/04/30 11:17:27;;;;;;;3.45;2.70;;;17.60;76.20;;;;;;4918660;28;95874;-59
2022/04/30 11:19:57;;;;;;;3.40;2.17;;;17.60;76.20;;;;;;4926575;28;95401;-59
2022/04/30 11:22:27;;;;;;;4.13;2.63;;;17.60;76.20;;;;;;4926723;28;95778;-59
2022/04/30 11:25:00;;;;;;;5.63;2.67;;;17.60;75.60;;;;;;4921663;28;96033;-59
2022/04/30 11:27:34;;;;;;;6.15;2.78;;;17.50;76.10;;;;;;4930260;28;96169;-59
2022/04/30 11:30:05;;;;;;;3.47;2.70;;;17.40;76.40;;;;;;4923628;28;95929;-59
2022/04/30 11:32:37;;;;;;;6.35;3.58;;;17.40;76.60;;;;;;4932113;28;95846;-53
2022/04/30 11:35:07;;;;;;;5.13;2.70;;;17.40;76.60;;;;;;4931791;28;95707;-58
2022/04/30 11:37:39;;;;;;;5.38;2.85;;;17.40;76.70;;;;;;4925897;28;96082;-58
2022/04/30 11:40:10;;;;;;;3.45;2.00;;;17.50;76.80;;;;;;4924818;28;95461;-59
2022/04/30 11:42:41;;;;;;;4.90;2.55;;;17.50;76.70;;;;;;4926701;28;96068;-57
2022/04/30 11:45:22;;;;;;;4.50;2.50;;;17.50;76.50;;;;;;4918715;28;95912;-59
2022/04/30 11:47:56;;;;;;;3.35;2.35;;;17.60;76.40;;;;;;4918579;28;102308;-59
2022/04/30 11:50:27;;;;;;;4.95;2.53;;;17.60;76.50;;;;;;4919247;28;96406;-60
2022/04/30 11:52:59;;;;;;;4.75;3.08;;;17.50;76.50;;;;;;4924139;28;95739;-58
2022/04/30 11:55:29;;;;;;;3.78;2.55;;;17.50;76.50;;;;;;4924705;28;96002;-59
2022/04/30 11:58:04;;;;;;;3.83;2.42;;;17.50;76.60;;;;;;4921803;28;95917;-59
2022/04/30 12:00:56;;;;;;;4.68;2.90;;;17.50;76.60;;;;;;4916439;28;96266;-60
2022/04/30 12:03:30;;;;;;;4.60;2.78;;;17.50;76.60;;;;;;4949602;28;96537;-59
2022/04/30 12:06:05;;;;;;;5.30;2.83;;;17.50;76.70;;;;;;4931677;28;95823;-59
2022/04/30 12:08:36;;;;;;;5.70;2.55;;;17.50;77.20;;;;;;4930611;28;96175;-61
2022/04/30 12:11:07;;;;;;;4.30;2.75;;;17.50;74.70;;;;;;4930762;28;95570;-59
2022/04/30 12:13:37;;;;;;;5.65;2.70;;;17.50;76.90;;;;;;4930629;28;95717;-59
2022/04/30 12:16:09;;;;;;;6.00;2.63;;;17.50;76.80;;;;;;4923766;28;95862;-59
2022/04/30 12:27:23;;;;;;;4.60;2.58;;;17.60;76.60;;;;;;4928712;28;96091;-60
2022/04/30 12:30:20;;;;;;;3.80;2.22;;;17.60;76.50;;;;;;4930206;28;96107;-60
2022/04/30 12:32:56;;;;;;;5.03;2.40;;;17.80;76.60;;;;;;4928675;28;101547;-56
2022/04/30 12:35:31;;;;;;;3.83;2.22;;;17.80;76.30;;;;;;4924993;28;97010;-55
2022/04/30 12:38:16;;;;;;;5.10;2.17;;;18.00;76.10;;;;;;4925626;28;95345;-59
2022/04/30 12:40:48;;;;;;;7.43;2.25;;;18.20;75.90;;;;;;4925598;28;96646;-52
2022/04/30 12:43:19;;;;;;;5.10;2.38;;;18.30;75.70;;;;;;4926089;28;95874;-56
2022/04/30 12:45:50;;;;;;;3.58;1.77;;;18.40;75.50;;;;;;4918995;28;95862;-59
2022/04/30 12:48:21;;;;;;;4.88;2.00;;;18.50;75.30;;;;;;4918142;28;97419;-59
2022/04/30 12:50:52;;;;;;;2.20;1.80;;;18.60;75.40;;;;;;4913767;28;96612;-57
2022/04/30 12:53:22;;;;;;;;;;;18.70;75.10;;;;;;4924060;28;95834;-59
2022/04/30 12:55:54;;;;;;;4.38;2.60;;;18.80;74.80;;;;;;4927356;28;96611;-55
2022/04/30 12:58:25;;;;;;;2.47;1.95;;;18.90;74.60;;;;;;4925708;28;95990;-58
2022/04/30 13:00:56;;;;;;;3.03;1.90;;;19.00;74.50;;;;;;4917439;28;97508;-59
2022/04/30 13:03:28;;;;;;;3.97;2.28;;;19.10;74.30;;;;;;4925179;28;95877;-52
2022/04/30 13:06:00;;;;;;;2.75;1.75;;;19.20;74.10;;;;;;4925982;28;95465;-55
2022/04/30 13:14:16;;;;;;;1.45;1.23;;;19.40;73.70;;;;;;4924535;28;95895;-57
2022/04/30 13:16:49;;;;;;;3.22;1.98;;;19.50;73.50;;;;;;4917311;28;95538;-60
2022/04/30 13:19:19;;;;;;;2.67;1.38;;;19.50;73.30;;;;;;4925225;28;95845;-59
2022/04/30 13:21:50;;;;;;;2.65;1.50;;;19.60;73.10;;;;;;4924149;28;95866;-57
2022/04/30 13:24:21;;;;;;;;;;;19.70;73.00;;;;;;4925104;28;96237;-59
2022/04/30 13:26:54;;;;;;;2.20;1.60;;;19.70;72.90;;;;;;4925150;28;96066;-59
2022/04/30 13:29:24;;;;;;;2.55;1.52;;;19.80;72.80;;;;;;4925479;28;96071;-56
2022/04/30 13:31:55;;;;;;;2.90;1.58;;;19.80;72.70;;;;;;4915219;28;95845;-57
2022/04/30 13:34:25;;;;;;;3.73;1.87;;;19.90;72.70;;;;;;4924638;28;96214;-57
2022/04/30 13:36:55;;;;;;;3.20;1.33;;;19.90;73.30;;;;;;4924815;28;95264;-54
2022/04/30 13:39:27;;;;;;;2.30;1.50;;;19.90;72.60;;;;;;4925195;28;96090;-58
2022/04/30 13:41:59;;;;;;;1.65;1.42;;;20.00;72.50;;;;;;4923623;28;96595;-56
2022/04/30 13:44:32;;;;;;;1.60;1.40;;;20.00;72.50;;;;;;4922909;28;95676;-49
2022/04/30 13:47:03;;;;;;;2.42;1.65;;;20.10;72.30;;;;;;4917209;28;97966;-59
2022/04/30 13:49:34;;;;;;;4.50;1.83;;;20.10;71.30;;;;;;4915070;28;96159;-59
2022/04/30 13:52:08;;;;;;;3.92;2.30;;;19.70;70.40;;;;;;4919457;28;95957;-59
2022/04/30 13:54:42;;;;;;;2.78;1.50;;;19.40;71.40;;;;;;4922123;28;96052;-58
2022/04/30 13:57:13;;;;;;;2.80;1.70;;;19.20;71.80;;;;;;4922752;28;95948;-58
2022/04/30 13:59:44;;;;;;;4.00;1.98;;;19.10;72.10;;;;;;4921673;28;96219;-59
2022/04/30 14:02:15;;;;;;;5.82;1.83;;;19.00;72.20;;;;;;4915089;28;96623;-55
2022/04/30 14:04:45;;;;;;;2.58;2.03;;;18.90;72.30;;;;;;4922266;28;96256;-58
2022/04/30 14:07:18;;;;;;;4.13;1.73;;;18.90;72.50;;;;;;4923888;28;95731;-58
2022/04/30 14:09:48;;;;;;;2.75;1.50;;;18.80;72.40;;;;;;4923089;28;96131;-55
2022/04/30 14:12:39;;;;;;;5.88;2.05;;;18.80;72.30;;;;;;4922444;28;95893;-57
2022/04/30 14:15:13;;;;;;;4.95;1.88;;;18.70;72.40;;;;;;4922370;28;95686;-56
2022/04/30 14:20:38;;;;;;;2.38;1.50;;;18.60;72.50;;;;;;4924529;28;95871;-58
2022/04/30 14:23:13;;;;;;;3.13;1.70;;;18.60;72.50;;;;;;4924218;28;96943;-57
2022/04/30 14:25:45;;;;;;;3.67;1.70;;;18.50;72.70;;;;;;4923772;28;95977;-56
2022/04/30 14:28:19;;;;;;;2.20;1.45;;;18.50;72.70;;;;;;4924480;28;95333;-57
2022/04/30 14:30:52;;;;;;;2.47;1.77;;;18.50;72.70;;;;;;4917141;28;96102;-57
2022/04/30 14:33:22;;;;;;;2.33;1.27;;;18.50;72.70;;;;;;4923394;28;96205;-49
2022/04/30 14:35:53;;;;;;;2.75;1.38;;;18.40;72.90;;;;;;4923643;28;95920;-58
2022/04/30 14:38:24;;;;;;;2.95;1.30;;;18.30;72.90;;;;;;4924752;28;95794;-58
2022/04/30 14:41:01;;;;;;;5.68;1.70;;;18.30;73.20;;;;;;4924571;28;95823;-54
2022/04/30 14:43:34;;;;;;;1.65;1.38;;;18.30;73.20;;;;;;4924041;28;95888;-59
2022/04/30 14:46:08;;;;;;;2.00;1.63;;;18.30;73.30;;;;;;4916893;28;95888;-57
2022/04/30 14:48:40;;;;;;;3.40;1.65;;;18.20;73.30;;;;;;4916691;28;96713;-58
2022/04/30 14:51:11;;;;;;;3.00;1.43;;;18.20;73.40;;;;;;4914051;28;96080;-51
2022/04/30 14:53:41;;;;;;;;;;;18.20;73.40;;;;;;4924720;28;96004;-59
2022/04/30 14:56:13;;;;;;;2.75;1.50;;;18.10;73.50;;;;;;4924959;28;95862;-58
2022/04/30 14:58:44;;;;;;;1.75;1.33;;;18.10;73.70;;;;;;4923326;28;95305;-55
2022/04/30 15:01:18;;;;;;;4.15;1.88;;;18.10;73.70;;;;;;4916451;28;96476;-58
2022/04/30 15:03:49;;;;;;;2.55;1.38;;;18.10;73.80;;;;;;4927309;28;96345;-59